sensor_id;sensor_type;location;lat;lon;timestamp;temperature;humidity
44647;DHT22;56315;-33.902;151.160;2022-12-07T00:01:22;30.00;87.20
44647;DHT22;56315;-33.902;151.160;2022-12-07T00:03:50;29.90;87.10
44647;DHT22;56315;-33.902;151.160;2022-12-07T00:06:17;29.70;87.30
44647;DHT22;56315;-33.902;151.160;2022-12-07T00:08:44;29.60;87.90
44647;DHT22;56315;-33.902;151.160;2022-12-07T00:11:12;29.50;90.00
44647;DHT22;56315;-33.902;151.160;2022-12-07T00:13:39;29.60;89.30
44647;DHT22;56315;-33.902;151.160;2022-12-07T00:18:33;30.00;88.90
44647;DHT22;56315;-33.902;151.160;2022-12-07T00:21:02;30.10;87.70
44647;DHT22;56315;-33.902;151.160;2022-12-07T00:23:30;29.90;85.50
44647;DHT22;56315;-33.902;151.160;2022-12-07T00:26:02;30.00;86.00
44647;DHT22;56315;-33.902;151.160;2022-12-07T00:28:29;30.00;85.60
44647;DHT22;56315;-33.902;151.160;2022-12-07T00:31:00;30.10;86.60
44647;DHT22;56315;-33.902;151.160;2022-12-07T00:33:26;30.30;91.80
44647;DHT22;56315;-33.902;151.160;2022-12-07T00:35:57;30.40;92.40
44647;DHT22;56315;-33.902;151.160;2022-12-07T00:38:24;30.60;92.30
44647;DHT22;56315;-33.902;151.160;2022-12-07T00:40:54;30.80;91.30
44647;DHT22;56315;-33.902;151.160;2022-12-07T00:43:21;30.80;90.70
44647;DHT22;56315;-33.902;151.160;2022-12-07T00:45:47;30.90;90.40
44647;DHT22;56315;-33.902;151.160;2022-12-07T00:48:14;31.20;91.70
44647;DHT22;56315;-33.902;151.160;2022-12-07T00:50:41;31.40;91.10
44647;DHT22;56315;-33.902;151.160;2022-12-07T00:53:07;31.70;91.60
44647;DHT22;56315;-33.902;151.160;2022-12-07T00:55:37;32.00;91.60
44647;DHT22;56315;-33.902;151.160;2022-12-07T00:58:04;32.20;82.80
44647;DHT22;56315;-33.902;151.160;2022-12-07T01:00:31;32.00;79.30
44647;DHT22;56315;-33.902;151.160;2022-12-07T01:02:58;31.70;79.20
44647;DHT22;56315;-33.902;151.160;2022-12-07T01:05:25;31.60;87.80
44647;DHT22;56315;-33.902;151.160;2022-12-07T01:07:52;31.40;90.40
44647;DHT22;56315;-33.902;151.160;2022-12-07T01:10:18;31.40;90.30
44647;DHT22;56315;-33.902;151.160;2022-12-07T01:12:45;31.10;87.40
44647;DHT22;56315;-33.902;151.160;2022-12-07T01:15:12;30.90;81.50
44647;DHT22;56315;-33.902;151.160;2022-12-07T01:17:39;31.00;86.50
44647;DHT22;56315;-33.902;151.160;2022-12-07T01:20:05;31.10;90.90
44647;DHT22;56315;-33.902;151.160;2022-12-07T01:22:36;30.90;91.20
44647;DHT22;56315;-33.902;151.160;2022-12-07T01:25:03;30.60;91.50
44647;DHT22;56315;-33.902;151.160;2022-12-07T01:27:30;30.30;91.60
44647;DHT22;56315;-33.902;151.160;2022-12-07T01:29:56;30.00;91.60
44647;DHT22;56315;-33.902;151.160;2022-12-07T01:32:23;29.70;92.50
44647;DHT22;56315;-33.902;151.160;2022-12-07T01:34:50;29.50;93.80
44647;DHT22;56315;-33.902;151.160;2022-12-07T01:37:17;29.30;94.50
44647;DHT22;56315;-33.902;151.160;2022-12-07T01:39:44;29.10;94.60
44647;DHT22;56315;-33.902;151.160;2022-12-07T01:42:11;28.80;94.90
44647;DHT22;56315;-33.902;151.160;2022-12-07T01:47:22;28.60;94.80
44647;DHT22;56315;-33.902;151.160;2022-12-07T01:49:49;28.60;95.30
44647;DHT22;56315;-33.902;151.160;2022-12-07T01:52:29;28.60;95.60
44647;DHT22;56315;-33.902;151.160;2022-12-07T01:54:57;28.60;95.60
44647;DHT22;56315;-33.902;151.160;2022-12-07T01:57:25;28.50;96.10
44647;DHT22;56315;-33.902;151.160;2022-12-07T01:59:52;28.60;95.80
44647;DHT22;56315;-33.902;151.160;2022-12-07T02:02:24;28.70;96.10
44647;DHT22;56315;-33.902;151.160;2022-12-07T02:04:52;28.60;95.80
44647;DHT22;56315;-33.902;151.160;2022-12-07T02:07:20;28.40;96.30
44647;DHT22;56315;-33.902;151.160;2022-12-07T02:09:47;28.30;96.20
44647;DHT22;56315;-33.902;151.160;2022-12-07T02:12:14;28.40;95.70
44647;DHT22;56315;-33.902;151.160;2022-12-07T02:14:40;28.50;95.60
44647;DHT22;56315;-33.902;151.160;2022-12-07T02:19:41;28.70;96.20
44647;DHT22;56315;-33.902;151.160;2022-12-07T02:22:52;28.80;94.60
44647;DHT22;56315;-33.902;151.160;2022-12-07T02:30:08;29.30;94.20
44647;DHT22;56315;-33.902;151.160;2022-12-07T02:32:38;29.50;93.90
44647;DHT22;56315;-33.902;151.160;2022-12-07T02:35:11;29.80;95.30
44647;DHT22;56315;-33.902;151.160;2022-12-07T02:42:51;29.80;94.40
44647;DHT22;56315;-33.902;151.160;2022-12-07T02:45:21;29.50;94.50
44647;DHT22;56315;-33.902;151.160;2022-12-07T02:47:48;29.30;95.10
44647;DHT22;56315;-33.902;151.160;2022-12-07T02:50:20;29.10;95.80
44647;DHT22;56315;-33.902;151.160;2022-12-07T02:52:47;28.90;95.70
44647;DHT22;56315;-33.902;151.160;2022-12-07T02:55:14;28.80;95.30
44647;DHT22;56315;-33.902;151.160;2022-12-07T03:00:15;28.50;95.50
44647;DHT22;56315;-33.902;151.160;2022-12-07T03:02:56;28.50;96.50
44647;DHT22;56315;-33.902;151.160;2022-12-07T03:13:25;28.30;97.40
44647;DHT22;56315;-33.902;151.160;2022-12-07T03:18:41;28.10;97.10
44647;DHT22;56315;-33.902;151.160;2022-12-07T03:21:10;28.10;96.80
44647;DHT22;56315;-33.902;151.160;2022-12-07T03:23:38;28.10;97.40
44647;DHT22;56315;-33.902;151.160;2022-12-07T03:26:08;28.10;97.40
44647;DHT22;56315;-33.902;151.160;2022-12-07T03:28:37;28.10;97.10
44647;DHT22;56315;-33.902;151.160;2022-12-07T03:31:13;28.20;96.90
44647;DHT22;56315;-33.902;151.160;2022-12-07T03:33:46;28.30;97.10
44647;DHT22;56315;-33.902;151.160;2022-12-07T03:36:17;28.30;96.20
44647;DHT22;56315;-33.902;151.160;2022-12-07T03:38:48;28.30;96.60
44647;DHT22;56315;-33.902;151.160;2022-12-07T03:41:22;28.20;96.30
44647;DHT22;56315;-33.902;151.160;2022-12-07T03:43:49;28.20;96.60
44647;DHT22;56315;-33.902;151.160;2022-12-07T03:51:54;28.30;95.90
44647;DHT22;56315;-33.902;151.160;2022-12-07T03:54:05;28.40;96.10
44647;DHT22;56315;-33.902;151.160;2022-12-07T03:56:33;28.40;96.30
44647;DHT22;56315;-33.902;151.160;2022-12-07T03:59:01;28.60;96.40
44647;DHT22;56315;-33.902;151.160;2022-12-07T04:01:27;28.50;96.30
44647;DHT22;56315;-33.902;151.160;2022-12-07T04:03:54;28.60;96.30
44647;DHT22;56315;-33.902;151.160;2022-12-07T04:06:21;28.70;95.60
44647;DHT22;56315;-33.902;151.160;2022-12-07T04:08:48;28.70;95.70
44647;DHT22;56315;-33.902;151.160;2022-12-07T04:11:14;28.60;95.90
44647;DHT22;56315;-33.902;151.160;2022-12-07T04:13:41;28.50;96.00
44647;DHT22;56315;-33.902;151.160;2022-12-07T04:16:26;28.30;96.30
44647;DHT22;56315;-33.902;151.160;2022-12-07T04:18:52;28.10;97.30
44647;DHT22;56315;-33.902;151.160;2022-12-07T04:21:19;28.00;97.10
44647;DHT22;56315;-33.902;151.160;2022-12-07T04:23:46;27.90;96.40
44647;DHT22;56315;-33.902;151.160;2022-12-07T04:26:12;27.90;94.90
44647;DHT22;56315;-33.902;151.160;2022-12-07T04:28:39;27.80;93.90
44647;DHT22;56315;-33.902;151.160;2022-12-07T04:31:06;27.80;85.00
44647;DHT22;56315;-33.902;151.160;2022-12-07T04:33:32;27.70;80.70
44647;DHT22;56315;-33.902;151.160;2022-12-07T04:35:59;27.70;77.70
44647;DHT22;56315;-33.902;151.160;2022-12-07T04:38:26;27.70;73.80
44647;DHT22;56315;-33.902;151.160;2022-12-07T04:40:52;27.70;73.60
44647;DHT22;56315;-33.902;151.160;2022-12-07T04:43:19;27.70;72.70
44647;DHT22;56315;-33.902;151.160;2022-12-07T04:45:47;27.80;72.70
44647;DHT22;56315;-33.902;151.160;2022-12-07T04:48:13;27.80;67.90
44647;DHT22;56315;-33.902;151.160;2022-12-07T04:50:40;27.80;68.40
44647;DHT22;56315;-33.902;151.160;2022-12-07T04:53:07;27.90;66.90
44647;DHT22;56315;-33.902;151.160;2022-12-07T04:55:34;28.10;66.60
44647;DHT22;56315;-33.902;151.160;2022-12-07T04:58:00;28.10;67.50
44647;DHT22;56315;-33.902;151.160;2022-12-07T05:00:27;28.20;66.70
44647;DHT22;56315;-33.902;151.160;2022-12-07T05:02:54;28.30;65.90
44647;DHT22;56315;-33.902;151.160;2022-12-07T05:05:21;28.30;65.10
44647;DHT22;56315;-33.902;151.160;2022-12-07T05:07:47;28.30;66.10
44647;DHT22;56315;-33.902;151.160;2022-12-07T05:10:14;28.30;65.40
44647;DHT22;56315;-33.902;151.160;2022-12-07T05:12:41;28.40;65.70
44647;DHT22;56315;-33.902;151.160;2022-12-07T05:15:12;28.60;65.90
44647;DHT22;56315;-33.902;151.160;2022-12-07T05:17:39;28.60;66.00
44647;DHT22;56315;-33.902;151.160;2022-12-07T05:20:06;28.60;66.90
44647;DHT22;56315;-33.902;151.160;2022-12-07T05:22:33;28.60;67.10
44647;DHT22;56315;-33.902;151.160;2022-12-07T05:24:59;28.60;67.50
44647;DHT22;56315;-33.902;151.160;2022-12-07T05:27:26;28.60;67.80
44647;DHT22;56315;-33.902;151.160;2022-12-07T05:29:53;28.30;66.00
44647;DHT22;56315;-33.902;151.160;2022-12-07T05:32:19;28.20;65.30
44647;DHT22;56315;-33.902;151.160;2022-12-07T05:34:46;28.10;66.40
44647;DHT22;56315;-33.902;151.160;2022-12-07T05:37:13;28.00;67.80
44647;DHT22;56315;-33.902;151.160;2022-12-07T05:39:40;27.90;68.10
44647;DHT22;56315;-33.902;151.160;2022-12-07T05:42:10;27.90;67.10
44647;DHT22;56315;-33.902;151.160;2022-12-07T05:44:40;27.80;67.30
44647;DHT22;56315;-33.902;151.160;2022-12-07T05:47:07;27.60;66.90
44647;DHT22;56315;-33.902;151.160;2022-12-07T05:49:34;27.60;68.60
44647;DHT22;56315;-33.902;151.160;2022-12-07T05:52:01;27.50;68.50
44647;DHT22;56315;-33.902;151.160;2022-12-07T05:54:28;27.40;69.50
44647;DHT22;56315;-33.902;151.160;2022-12-07T05:56:54;27.30;67.40
44647;DHT22;56315;-33.902;151.160;2022-12-07T05:59:21;27.10;68.30
44647;DHT22;56315;-33.902;151.160;2022-12-07T06:01:54;27.00;69.60
44647;DHT22;56315;-33.902;151.160;2022-12-07T06:04:21;26.90;70.40
44647;DHT22;56315;-33.902;151.160;2022-12-07T06:06:48;26.80;70.80
44647;DHT22;56315;-33.902;151.160;2022-12-07T06:09:15;26.80;70.90
44647;DHT22;56315;-33.902;151.160;2022-12-07T06:11:42;26.80;70.30
44647;DHT22;56315;-33.902;151.160;2022-12-07T06:14:26;26.70;69.50
44647;DHT22;56315;-33.902;151.160;2022-12-07T06:16:53;26.70;70.70
44647;DHT22;56315;-33.902;151.160;2022-12-07T06:19:20;26.80;71.10
44647;DHT22;56315;-33.902;151.160;2022-12-07T06:21:47;26.70;71.10
44647;DHT22;56315;-33.902;151.160;2022-12-07T06:24:14;26.70;70.30
44647;DHT22;56315;-33.902;151.160;2022-12-07T06:26:42;26.60;71.30
44647;DHT22;56315;-33.902;151.160;2022-12-07T06:29:09;26.60;70.20
44647;DHT22;56315;-33.902;151.160;2022-12-07T06:31:36;26.60;71.00
44647;DHT22;56315;-33.902;151.160;2022-12-07T06:34:04;26.60;71.10
44647;DHT22;56315;-33.902;151.160;2022-12-07T06:36:31;26.50;71.00
44647;DHT22;56315;-33.902;151.160;2022-12-07T06:38:58;26.40;71.80
44647;DHT22;56315;-33.902;151.160;2022-12-07T06:41:24;26.40;70.80
44647;DHT22;56315;-33.902;151.160;2022-12-07T06:43:51;26.40;71.50
44647;DHT22;56315;-33.902;151.160;2022-12-07T06:46:18;26.40;73.60
44647;DHT22;56315;-33.902;151.160;2022-12-07T06:48:45;26.40;75.60
44647;DHT22;56315;-33.902;151.160;2022-12-07T06:51:12;26.40;76.30
44647;DHT22;56315;-33.902;151.160;2022-12-07T06:53:39;26.40;77.80
44647;DHT22;56315;-33.902;151.160;2022-12-07T06:56:05;26.40;79.60
44647;DHT22;56315;-33.902;151.160;2022-12-07T06:58:32;26.30;79.70
44647;DHT22;56315;-33.902;151.160;2022-12-07T07:00:59;26.30;79.90
44647;DHT22;56315;-33.902;151.160;2022-12-07T07:03:26;26.20;79.80
44647;DHT22;56315;-33.902;151.160;2022-12-07T07:05:52;26.00;80.50
44647;DHT22;56315;-33.902;151.160;2022-12-07T07:08:19;26.00;80.40
44647;DHT22;56315;-33.902;151.160;2022-12-07T07:10:46;25.90;81.30
44647;DHT22;56315;-33.902;151.160;2022-12-07T07:13:12;25.80;80.70
44647;DHT22;56315;-33.902;151.160;2022-12-07T07:15:39;25.70;81.70
44647;DHT22;56315;-33.902;151.160;2022-12-07T07:18:06;25.70;82.30
44647;DHT22;56315;-33.902;151.160;2022-12-07T07:20:32;25.70;82.80
44647;DHT22;56315;-33.902;151.160;2022-12-07T07:22:59;25.60;82.70
44647;DHT22;56315;-33.902;151.160;2022-12-07T07:25:26;25.60;83.60
44647;DHT22;56315;-33.902;151.160;2022-12-07T07:27:53;25.60;83.90
44647;DHT22;56315;-33.902;151.160;2022-12-07T07:30:19;25.50;84.00
44647;DHT22;56315;-33.902;151.160;2022-12-07T07:32:46;25.40;83.70
44647;DHT22;56315;-33.902;151.160;2022-12-07T07:35:13;25.40;84.30
44647;DHT22;56315;-33.902;151.160;2022-12-07T07:37:40;25.30;84.80
44647;DHT22;56315;-33.902;151.160;2022-12-07T07:40:07;25.20;85.00
44647;DHT22;56315;-33.902;151.160;2022-12-07T07:42:34;25.10;85.90
44647;DHT22;56315;-33.902;151.160;2022-12-07T07:45:01;25.10;86.30
44647;DHT22;56315;-33.902;151.160;2022-12-07T07:47:27;25.10;86.10
44647;DHT22;56315;-33.902;151.160;2022-12-07T07:49:54;25.10;86.50
44647;DHT22;56315;-33.902;151.160;2022-12-07T07:52:21;25.00;87.30
44647;DHT22;56315;-33.902;151.160;2022-12-07T07:54:48;25.00;87.20
44647;DHT22;56315;-33.902;151.160;2022-12-07T07:57:16;24.90;87.40
44647;DHT22;56315;-33.902;151.160;2022-12-07T07:59:42;24.90;88.10
44647;DHT22;56315;-33.902;151.160;2022-12-07T08:02:12;24.90;88.10
44647;DHT22;56315;-33.902;151.160;2022-12-07T08:04:40;24.80;88.50
44647;DHT22;56315;-33.902;151.160;2022-12-07T08:07:07;24.70;89.10
44647;DHT22;56315;-33.902;151.160;2022-12-07T08:09:33;24.70;89.10
44647;DHT22;56315;-33.902;151.160;2022-12-07T08:12:00;24.70;89.50
44647;DHT22;56315;-33.902;151.160;2022-12-07T08:14:27;24.70;89.90
44647;DHT22;56315;-33.902;151.160;2022-12-07T08:16:54;24.60;89.80
44647;DHT22;56315;-33.902;151.160;2022-12-07T08:19:22;24.50;89.90
44647;DHT22;56315;-33.902;151.160;2022-12-07T08:21:49;24.50;90.10
44647;DHT22;56315;-33.902;151.160;2022-12-07T08:24:15;24.40;90.20
44647;DHT22;56315;-33.902;151.160;2022-12-07T08:26:42;24.40;90.30
44647;DHT22;56315;-33.902;151.160;2022-12-07T08:29:09;24.40;90.50
44647;DHT22;56315;-33.902;151.160;2022-12-07T08:31:35;24.40;90.70
44647;DHT22;56315;-33.902;151.160;2022-12-07T08:34:02;24.30;90.30
44647;DHT22;56315;-33.902;151.160;2022-12-07T08:36:29;24.30;90.40
44647;DHT22;56315;-33.902;151.160;2022-12-07T08:38:55;24.30;90.50
44647;DHT22;56315;-33.902;151.160;2022-12-07T08:41:22;24.30;90.70
44647;DHT22;56315;-33.902;151.160;2022-12-07T08:43:50;24.30;91.00
44647;DHT22;56315;-33.902;151.160;2022-12-07T08:48:57;24.10;90.90
44647;DHT22;56315;-33.902;151.160;2022-12-07T08:51:24;24.10;91.10
44647;DHT22;56315;-33.902;151.160;2022-12-07T08:53:52;24.10;91.30
44647;DHT22;56315;-33.902;151.160;2022-12-07T08:56:18;24.00;91.20
44647;DHT22;56315;-33.902;151.160;2022-12-07T08:58:45;24.00;91.30
44647;DHT22;56315;-33.902;151.160;2022-12-07T09:01:12;24.00;91.30
44647;DHT22;56315;-33.902;151.160;2022-12-07T09:03:39;24.00;91.60
44647;DHT22;56315;-33.902;151.160;2022-12-07T09:06:05;23.90;91.60
44647;DHT22;56315;-33.902;151.160;2022-12-07T09:08:33;23.90;91.70
44647;DHT22;56315;-33.902;151.160;2022-12-07T09:11:01;23.80;92.20
44647;DHT22;56315;-33.902;151.160;2022-12-07T09:13:28;23.80;91.70
44647;DHT22;56315;-33.902;151.160;2022-12-07T09:15:55;23.80;91.80
44647;DHT22;56315;-33.902;151.160;2022-12-07T09:18:21;23.80;91.80
44647;DHT22;56315;-33.902;151.160;2022-12-07T09:20:50;23.80;91.90
44647;DHT22;56315;-33.902;151.160;2022-12-07T09:23:17;23.80;92.40
44647;DHT22;56315;-33.902;151.160;2022-12-07T09:25:43;23.70;91.80
44647;DHT22;56315;-33.902;151.160;2022-12-07T09:28:10;23.70;91.90
44647;DHT22;56315;-33.902;151.160;2022-12-07T09:30:37;23.70;92.20
44647;DHT22;56315;-33.902;151.160;2022-12-07T09:33:04;23.60;92.20
44647;DHT22;56315;-33.902;151.160;2022-12-07T09:35:31;23.60;92.60
44647;DHT22;56315;-33.902;151.160;2022-12-07T09:37:57;23.50;92.40
44647;DHT22;56315;-33.902;151.160;2022-12-07T09:40:24;23.50;92.40
44647;DHT22;56315;-33.902;151.160;2022-12-07T09:42:52;23.50;92.70
44647;DHT22;56315;-33.902;151.160;2022-12-07T09:45:21;23.40;92.90
44647;DHT22;56315;-33.902;151.160;2022-12-07T09:47:49;23.40;92.90
44647;DHT22;56315;-33.902;151.160;2022-12-07T09:50:16;23.50;92.70
44647;DHT22;56315;-33.902;151.160;2022-12-07T09:52:45;23.50;92.80
44647;DHT22;56315;-33.902;151.160;2022-12-07T09:55:15;23.50;92.80
44647;DHT22;56315;-33.902;151.160;2022-12-07T09:57:42;23.40;92.80
44647;DHT22;56315;-33.902;151.160;2022-12-07T10:00:13;23.50;92.90
44647;DHT22;56315;-33.902;151.160;2022-12-07T10:02:42;23.40;93.00
44647;DHT22;56315;-33.902;151.160;2022-12-07T10:05:14;23.30;93.00
44647;DHT22;56315;-33.902;151.160;2022-12-07T10:07:41;23.30;93.10
44647;DHT22;56315;-33.902;151.160;2022-12-07T10:10:15;23.20;93.10
44647;DHT22;56315;-33.902;151.160;2022-12-07T10:12:56;23.20;93.30
44647;DHT22;56315;-33.902;151.160;2022-12-07T10:15:38;23.10;93.30
44647;DHT22;56315;-33.902;151.160;2022-12-07T10:18:16;23.10;93.40
44647;DHT22;56315;-33.902;151.160;2022-12-07T10:20:44;23.10;93.90
44647;DHT22;56315;-33.902;151.160;2022-12-07T10:23:15;23.10;93.60
44647;DHT22;56315;-33.902;151.160;2022-12-07T10:25:42;23.10;93.70
44647;DHT22;56315;-33.902;151.160;2022-12-07T10:33:38;23.00;93.90
44647;DHT22;56315;-33.902;151.160;2022-12-07T10:36:21;22.90;94.00
44647;DHT22;56315;-33.902;151.160;2022-12-07T10:41:26;22.90;94.30
44647;DHT22;56315;-33.902;151.160;2022-12-07T10:43:54;22.90;94.10
44647;DHT22;56315;-33.902;151.160;2022-12-07T10:51:44;22.90;94.50
44647;DHT22;56315;-33.902;151.160;2022-12-07T10:56:51;22.80;94.50
44647;DHT22;56315;-33.902;151.160;2022-12-07T11:04:24;22.80;94.40
44647;DHT22;56315;-33.902;151.160;2022-12-07T11:12:28;22.80;94.60
44647;DHT22;56315;-33.902;151.160;2022-12-07T11:15:04;22.80;94.50
44647;DHT22;56315;-33.902;151.160;2022-12-07T11:20:24;22.80;94.80
44647;DHT22;56315;-33.902;151.160;2022-12-07T11:22:58;22.70;94.70
44647;DHT22;56315;-33.902;151.160;2022-12-07T11:30:51;22.70;94.90
44647;DHT22;56315;-33.902;151.160;2022-12-07T11:41:00;22.60;94.40
44647;DHT22;56315;-33.902;151.160;2022-12-07T11:43:45;22.70;94.40
44647;DHT22;56315;-33.902;151.160;2022-12-07T11:46:17;22.70;94.50
44647;DHT22;56315;-33.902;151.160;2022-12-07T11:48:50;22.70;94.50
44647;DHT22;56315;-33.902;151.160;2022-12-07T11:51:18;22.70;94.50
44647;DHT22;56315;-33.902;151.160;2022-12-07T11:53:49;22.70;94.60
44647;DHT22;56315;-33.902;151.160;2022-12-07T11:56:22;22.60;94.30
44647;DHT22;56315;-33.902;151.160;2022-12-07T12:04:07;22.60;94.30
44647;DHT22;56315;-33.902;151.160;2022-12-07T12:10:05;22.50;94.60
44647;DHT22;56315;-33.902;151.160;2022-12-07T12:12:35;22.50;94.60
44647;DHT22;56315;-33.902;151.160;2022-12-07T12:18:04;22.30;95.00
44647;DHT22;56315;-33.902;151.160;2022-12-07T12:28:56;22.10;95.50
44647;DHT22;56315;-33.902;151.160;2022-12-07T12:34:04;22.00;95.90
44647;DHT22;56315;-33.902;151.160;2022-12-07T12:39:08;21.90;96.30
44647;DHT22;56315;-33.902;151.160;2022-12-07T12:51:51;21.60;97.40
44647;DHT22;56315;-33.902;151.160;2022-12-07T12:59:30;21.40;97.90
44647;DHT22;56315;-33.902;151.160;2022-12-07T13:02:15;21.50;97.30
44647;DHT22;56315;-33.902;151.160;2022-12-07T13:13:02;21.70;96.20
44647;DHT22;56315;-33.902;151.160;2022-12-07T13:24:18;21.60;96.40
44647;DHT22;56315;-33.902;151.160;2022-12-07T13:29:29;21.50;96.60
44647;DHT22;56315;-33.902;151.160;2022-12-07T13:32:02;21.50;96.70
44647;DHT22;56315;-33.902;151.160;2022-12-07T13:36:56;21.40;97.00
44647;DHT22;56315;-33.902;151.160;2022-12-07T13:39:23;21.40;97.30
44647;DHT22;56315;-33.902;151.160;2022-12-07T13:41:52;21.40;97.30
44647;DHT22;56315;-33.902;151.160;2022-12-07T13:44:19;21.30;97.50
44647;DHT22;56315;-33.902;151.160;2022-12-07T13:49:31;21.10;97.80
44647;DHT22;56315;-33.902;151.160;2022-12-07T13:54:43;21.00;98.00
44647;DHT22;56315;-33.902;151.160;2022-12-07T13:57:10;20.90;97.80
44647;DHT22;56315;-33.902;151.160;2022-12-07T13:59:37;20.90;98.00
44647;DHT22;56315;-33.902;151.160;2022-12-07T14:02:53;20.80;98.10
44647;DHT22;56315;-33.902;151.160;2022-12-07T14:10:28;20.70;98.50
44647;DHT22;56315;-33.902;151.160;2022-12-07T14:12:56;20.70;98.60
44647;DHT22;56315;-33.902;151.160;2022-12-07T14:18:39;20.50;99.00
44647;DHT22;56315;-33.902;151.160;2022-12-07T14:21:27;20.50;99.20
44647;DHT22;56315;-33.902;151.160;2022-12-07T14:24:04;20.40;99.50
44647;DHT22;56315;-33.902;151.160;2022-12-07T14:29:37;20.30;99.90
44647;DHT22;56315;-33.902;151.160;2022-12-07T14:35:09;20.30;99.90
44647;DHT22;56315;-33.902;151.160;2022-12-07T14:37:37;20.30;99.90
44647;DHT22;56315;-33.902;151.160;2022-12-07T14:40:04;20.30;99.90
44647;DHT22;56315;-33.902;151.160;2022-12-07T14:42:31;20.30;99.90
44647;DHT22;56315;-33.902;151.160;2022-12-07T14:48:00;20.30;99.90
44647;DHT22;56315;-33.902;151.160;2022-12-07T14:50:27;20.30;99.90
44647;DHT22;56315;-33.902;151.160;2022-12-07T14:52:54;20.30;99.90
44647;DHT22;56315;-33.902;151.160;2022-12-07T14:58:24;20.20;99.90
44647;DHT22;56315;-33.902;151.160;2022-12-07T15:00:51;20.20;99.90
44647;DHT22;56315;-33.902;151.160;2022-12-07T15:03:18;20.20;99.90
44647;DHT22;56315;-33.902;151.160;2022-12-07T15:08:47;20.10;99.90
44647;DHT22;56315;-33.902;151.160;2022-12-07T15:11:17;20.10;99.90
44647;DHT22;56315;-33.902;151.160;2022-12-07T15:13:44;20.00;99.90
44647;DHT22;56315;-33.902;151.160;2022-12-07T15:19:22;19.90;99.90
44647;DHT22;56315;-33.902;151.160;2022-12-07T15:21:51;19.90;99.90
44647;DHT22;56315;-33.902;151.160;2022-12-07T15:24:18;19.80;99.90
44647;DHT22;56315;-33.902;151.160;2022-12-07T15:26:48;19.80;99.90
44647;DHT22;56315;-33.902;151.160;2022-12-07T15:29:15;19.80;99.90
44647;DHT22;56315;-33.902;151.160;2022-12-07T15:31:42;19.70;99.90
44647;DHT22;56315;-33.902;151.160;2022-12-07T15:34:09;19.80;99.90
44647;DHT22;56315;-33.902;151.160;2022-12-07T15:36:39;19.80;99.90
44647;DHT22;56315;-33.902;151.160;2022-12-07T15:39:06;19.70;99.90
44647;DHT22;56315;-33.902;151.160;2022-12-07T15:41:32;19.60;99.90
44647;DHT22;56315;-33.902;151.160;2022-12-07T15:43:59;19.60;99.90
44647;DHT22;56315;-33.902;151.160;2022-12-07T15:46:44;19.60;99.90
44647;DHT22;56315;-33.902;151.160;2022-12-07T15:49:17;19.60;99.90
44647;DHT22;56315;-33.902;151.160;2022-12-07T15:51:44;19.70;99.90
44647;DHT22;56315;-33.902;151.160;2022-12-07T15:54:22;19.70;99.90
44647;DHT22;56315;-33.902;151.160;2022-12-07T15:56:49;19.60;99.90
44647;DHT22;56315;-33.902;151.160;2022-12-07T15:59:16;19.60;99.90
44647;DHT22;56315;-33.902;151.160;2022-12-07T16:01:42;19.60;99.90
44647;DHT22;56315;-33.902;151.160;2022-12-07T16:04:09;19.60;99.90
44647;DHT22;56315;-33.902;151.160;2022-12-07T16:06:39;19.50;99.90
44647;DHT22;56315;-33.902;151.160;2022-12-07T16:09:05;19.50;99.90
44647;DHT22;56315;-33.902;151.160;2022-12-07T16:11:32;19.50;99.90
44647;DHT22;56315;-33.902;151.160;2022-12-07T16:13:59;19.50;99.90
44647;DHT22;56315;-33.902;151.160;2022-12-07T16:16:26;19.50;99.90
44647;DHT22;56315;-33.902;151.160;2022-12-07T16:18:53;19.50;99.90
44647;DHT22;56315;-33.902;151.160;2022-12-07T16:21:20;19.40;99.90
44647;DHT22;56315;-33.902;151.160;2022-12-07T16:23:47;19.40;99.90
44647;DHT22;56315;-33.902;151.160;2022-12-07T16:26:17;19.30;99.90
44647;DHT22;56315;-33.902;151.160;2022-12-07T16:28:45;19.30;99.90
44647;DHT22;56315;-33.902;151.160;2022-12-07T16:31:15;19.30;99.90
44647;DHT22;56315;-33.902;151.160;2022-12-07T16:33:42;19.20;99.90
44647;DHT22;56315;-33.902;151.160;2022-12-07T16:39:12;19.20;99.90
44647;DHT22;56315;-33.902;151.160;2022-12-07T16:41:39;19.20;99.90
44647;DHT22;56315;-33.902;151.160;2022-12-07T16:44:06;19.20;99.90
44647;DHT22;56315;-33.902;151.160;2022-12-07T16:49:24;19.20;99.90
44647;DHT22;56315;-33.902;151.160;2022-12-07T16:51:51;19.10;99.90
44647;DHT22;56315;-33.902;151.160;2022-12-07T16:54:17;19.00;99.90
44647;DHT22;56315;-33.902;151.160;2022-12-07T16:56:44;18.90;99.90
44647;DHT22;56315;-33.902;151.160;2022-12-07T16:59:11;18.90;99.90
44647;DHT22;56315;-33.902;151.160;2022-12-07T17:01:37;18.80;99.90
44647;DHT22;56315;-33.902;151.160;2022-12-07T17:04:04;18.70;99.90
44647;DHT22;56315;-33.902;151.160;2022-12-07T17:06:34;18.80;99.90
44647;DHT22;56315;-33.902;151.160;2022-12-07T17:09:00;18.80;99.90
44647;DHT22;56315;-33.902;151.160;2022-12-07T17:11:28;18.70;99.90
44647;DHT22;56315;-33.902;151.160;2022-12-07T17:13:58;18.80;99.90
44647;DHT22;56315;-33.902;151.160;2022-12-07T17:16:43;18.80;99.90
44647;DHT22;56315;-33.902;151.160;2022-12-07T17:19:11;18.80;99.90
44647;DHT22;56315;-33.902;151.160;2022-12-07T17:21:38;18.80;99.90
44647;DHT22;56315;-33.902;151.160;2022-12-07T17:24:07;18.80;99.90
44647;DHT22;56315;-33.902;151.160;2022-12-07T17:26:37;18.90;99.90
44647;DHT22;56315;-33.902;151.160;2022-12-07T17:29:05;18.80;99.90
44647;DHT22;56315;-33.902;151.160;2022-12-07T17:31:34;18.90;99.90
44647;DHT22;56315;-33.902;151.160;2022-12-07T17:34:00;18.90;99.90
44647;DHT22;56315;-33.902;151.160;2022-12-07T17:36:28;18.90;99.90
44647;DHT22;56315;-33.902;151.160;2022-12-07T17:38:55;18.90;99.90
44647;DHT22;56315;-33.902;151.160;2022-12-07T17:41:23;18.90;99.90
44647;DHT22;56315;-33.902;151.160;2022-12-07T17:44:09;18.90;99.90
44647;DHT22;56315;-33.902;151.160;2022-12-07T17:46:36;18.90;99.90
44647;DHT22;56315;-33.902;151.160;2022-12-07T17:49:03;18.80;99.90
44647;DHT22;56315;-33.902;151.160;2022-12-07T17:51:30;18.70;99.90
44647;DHT22;56315;-33.902;151.160;2022-12-07T17:54:14;18.60;99.90
44647;DHT22;56315;-33.902;151.160;2022-12-07T17:56:41;18.40;99.90
44647;DHT22;56315;-33.902;151.160;2022-12-07T17:59:08;18.40;99.90